MSC Vanessa — HOWD — position and weather

sailwx.info

Track history (hours):
 
Tides and Currents Weather Stations Pressure Air Temp Water Temp Dewpoint Dewpoint Depression Visibility Wind Speed Wind Dir Waves Ship Positions

MSC Vanessa

Last reported at 2014-Dec-15 06:33 UTC. Time now 2014-Dec-19 12:01 UTC.
Position N 32°04' W 080°58'.

Length 300 m; draft 9.8 m.

Type: Ship (hazmat cat A). MMSI: 356946000.

Date/timePositionNaut miles runAvg speedWind from/ knotsBaromVisibWave heightAir tempDewpointWater temp
2014-Dec-15 06:33N 32°04' W 080°58'7 6.0
2014-Dec-15 05:28N 32°05' W 081°06'3 3.6
2014-Dec-15 04:33N 32°08' W 081°08'0 0.0
2014-Dec-15 02:11N 32°08' W 081°08'0 0.0
2014-Dec-15 01:11N 32°08' W 081°08'0 0.0
2014-Dec-14 23:05N 32°08' W 081°08'0 0.0
2014-Dec-14 22:32N 32°08' W 081°08'0 0.0
2014-Dec-14 20:14N 32°08' W 081°08'0 0.0
2014-Dec-14 19:32N 32°08' W 081°08'0 0.0
2014-Dec-14 18:32N 32°08' W 081°08'0 0.0
2014-Dec-14 17:32N 32°08' W 081°08'0 0.0
2014-Dec-14 16:20N 32°08' W 081°08'0 0.0
2014-Dec-14 14:32N 32°08' W 081°08'0 0.0
2014-Dec-14 12:26N 32°08' W 081°08'1 0.9
2014-Dec-14 11:23N 32°07' W 081°08'4 4.1
2014-Dec-14 10:27N 32°05' W 081°04'28915.3
2014-Dec-13 15:33N 34°17' W 075°56'263 7.5
2014-Dec-12 04:29N 38°39' W 076°25'2119.5
2014-Dec-12 03:25N 38°60' W 076°23'910.8
2014-Dec-12 02:33N 39°09' W 076°25'9 9.5
2014-Dec-12 01:34N 39°15' W 076°33'1 0.6
2014-Dec-12 00:33N 39°15' W 076°33'0 0.0
2014-Dec-11 23:33N 39°15' W 076°33'0 0.0
2014-Dec-11 22:33N 39°15' W 076°33'0 0.0
2014-Dec-11 21:33N 39°15' W 076°33'0 0.0
2014-Dec-11 20:33N 39°15' W 076°33'0 0.0
2014-Dec-11 19:33N 39°15' W 076°33'0 0.1
2014-Dec-11 18:33N 39°15' W 076°32'0 0.1
2014-Dec-11 17:33N 39°15' W 076°33'0 0.0
2014-Dec-11 16:33N 39°15' W 076°33'1 0.5
2014-Dec-11 15:34N 39°15' W 076°32'8 7.7
2014-Dec-11 14:34N 39°09' W 076°25'1313.2
2014-Dec-11 13:33N 38°56' W 076°23'4318.4
2014-Dec-11 11:12N 38°13' W 076°15'1218.4
2014-Dec-11 10:32N 38°01' W 076°13'33711.1
2014-Dec-10 04:15N 40°04' W 069°28'1114.2
2014-Dec-10 03:28N 40°11' W 069°17'14311.1
2014-Dec-09 14:30N 42°20' W 070°43'5 5.4
2014-Dec-09 13:33N 42°23' W 070°48'8 8.0
2014-Dec-09 12:33N 42°20' W 070°58'2 0.4
2014-Dec-09 06:20N 42°21' W 071°01'0 0.0
2014-Dec-09 00:29N 42°21' W 071°01'0 0.0
2014-Dec-08 22:17N 42°21' W 071°01'0 0.0
2014-Dec-08 21:23N 42°21' W 071°01'0 0.0
2014-Dec-08 19:05N 42°21' W 071°01'0 0.0
2014-Dec-08 18:29N 42°21' W 071°01'4 4.2
2014-Dec-08 17:34N 42°21' W 070°56'10 9.7
2014-Dec-08 16:33N 42°23' W 070°43'6 6.0
2014-Dec-08 15:33N 42°22' W 070°35'1211.9
2014-Dec-08 14:32N 42°21' W 070°19'1413.1
2014-Dec-08 13:29N 42°19' W 070°00'4314.3
2014-Dec-08 10:30N 41°41' W 069°34'7612.2
2014-Dec-08 04:18N 40°26' W 069°28'1215.4
2014-Dec-08 03:31N 40°25' W 069°44'1515.6
2014-Dec-08 02:33N 40°25' W 070°04'1515.4
2014-Dec-08 01:33N 40°25' W 070°24'1515.3
2014-Dec-08 00:33N 40°24' W 070°44'1515.4
2014-Dec-07 23:33N 40°24' W 071°04'1615.8
2014-Dec-07 22:33N 40°24' W 071°25'1615.6
2014-Dec-07 21:33N 40°23' W 071°45'1414.4
2014-Dec-07 20:33N 40°23' W 072°04'1514.7
2014-Dec-07 19:33N 40°23' W 072°23'1515.0
2014-Dec-07 18:33N 40°22' W 072°43'1615.6
2014-Dec-07 17:32N 40°22' W 073°04'1616.2
2014-Dec-07 16:33N 40°24' W 073°25'1110.4
2014-Dec-07 15:33N 40°25' W 073°39'9 9.0
2014-Dec-07 14:33N 40°27' W 073°50'10 9.9
2014-Dec-07 13:33N 40°32' W 074°01'8 8.3
2014-Dec-07 12:34N 40°39' W 074°08'3 2.7
2014-Dec-07 11:33N 40°41' W 074°09'0 0.0
2014-Dec-07 10:30N 40°41' W 074°09'0 0.0
2014-Dec-07 09:27N 40°41' W 074°09'0 0.0
2014-Dec-07 08:33N 40°41' W 074°09'0 0.0
2014-Dec-07 07:27N 40°41' W 074°09'0 0.0
2014-Dec-07 06:33N 40°41' W 074°09'0 0.0
2014-Dec-07 05:30N 40°41' W 074°09'0 0.0
2014-Dec-07 04:27N 40°41' W 074°09'0 0.0
2014-Dec-07 02:33N 40°41' W 074°09'0 0.0
2014-Dec-07 01:30N 40°41' W 074°09'0 0.0
2014-Dec-07 00:33N 40°41' W 074°09'0 0.0
2014-Dec-06 23:33N 40°41' W 074°09'0 0.0
2014-Dec-06 22:33N 40°41' W 074°09'0 0.0
2014-Dec-06 21:33N 40°41' W 074°09'0 0.0
2014-Dec-06 20:33N 40°41' W 074°09'0 0.0
2014-Dec-06 19:33N 40°41' W 074°09'0 0.0
2014-Dec-06 18:33N 40°41' W 074°09'0 0.0
2014-Dec-06 17:33N 40°41' W 074°09'0 0.0
2014-Dec-06 16:27N 40°41' W 074°09'0 0.0
2014-Dec-06 15:06N 40°41' W 074°09'0 0.0
2014-Dec-06 14:33N 40°41' W 074°09'0 0.0
2014-Dec-06 13:33N 40°41' W 074°09'0 0.0
2014-Dec-06 12:27N 40°41' W 074°09'0 0.0
2014-Dec-06 11:33N 40°41' W 074°09'1 1.3
2014-Dec-06 10:34N 40°40' W 074°08'4 4.3
2014-Dec-06 09:33N 40°38' W 074°03'1212.1
2014-Dec-06 08:33N 40°29' W 073°53'7 6.8
2014-Dec-06 07:33N 40°27' W 073°45'5012.0
2014-Dec-06 03:22N 40°30' W 072°39'1315.7
2014-Dec-06 02:34N 40°31' W 072°22'1615.8
2014-Dec-06 01:33N 40°31' W 072°01'1615.9
2014-Dec-06 00:33N 40°32' W 071°40'1716.1
2014-Dec-05 23:29N 40°32' W 071°18'2216.4
2014-Dec-05 22:07N 40°33' W 070°48'916.6
2014-Dec-05 21:33N 40°33' W 070°36'1716.8
2014-Dec-05 20:33N 40°33' W 070°14'1717.0
2014-Dec-05 19:33N 40°34' W 069°51'1717.0
2014-Dec-05 18:33N 40°34' W 069°29'1716.6
2014-Dec-05 17:33N 40°35' W 069°07'1715.9
2014-Dec-05 16:30N 40°35' W 068°45'1515.7
2014-Dec-05 15:33N 40°35' W 068°25'1412.8
2014-Dec-05 14:27N 40°36' W 068°07'  
Track history (hours):
 
Tides and Currents Weather Stations Pressure Air Temp Water Temp Dewpoint Dewpoint Depression Visibility Wind Speed Wind Dir Waves Ship Positions

MSC Vanessa

Last reported at 2014-Dec-15 06:33 UTC. Time now 2014-Dec-19 12:01 UTC.
Position N 32°04' W 080°58'.

Length 300 m; draft 9.8 m.

Type: Ship (hazmat cat A). MMSI: 356946000.

Date/timePositionNaut miles runAvg speedWind from/ knotsBaromVisibWave heightAir tempDewpointWater temp
2014-Dec-15 06:33N 32°04' W 080°58'7 6.0
2014-Dec-15 05:28N 32°05' W 081°06'3 3.6
2014-Dec-15 04:33N 32°08' W 081°08'0 0.0
2014-Dec-15 02:11N 32°08' W 081°08'0 0.0
2014-Dec-15 01:11N 32°08' W 081°08'0 0.0
2014-Dec-14 23:05N 32°08' W 081°08'0 0.0
2014-Dec-14 22:32N 32°08' W 081°08'0 0.0
2014-Dec-14 20:14N 32°08' W 081°08'0 0.0
2014-Dec-14 19:32N 32°08' W 081°08'0 0.0
2014-Dec-14 18:32N 32°08' W 081°08'0 0.0
2014-Dec-14 17:32N 32°08' W 081°08'0 0.0
2014-Dec-14 16:20N 32°08' W 081°08'0 0.0
2014-Dec-14 14:32N 32°08' W 081°08'0 0.0
2014-Dec-14 12:26N 32°08' W 081°08'1 0.9
2014-Dec-14 11:23N 32°07' W 081°08'4 4.1
2014-Dec-14 10:27N 32°05' W 081°04'28915.3
2014-Dec-13 15:33N 34°17' W 075°56'263 7.5
2014-Dec-12 04:29N 38°39' W 076°25'2119.5
2014-Dec-12 03:25N 38°60' W 076°23'910.8
2014-Dec-12 02:33N 39°09' W 076°25'9 9.5
2014-Dec-12 01:34N 39°15' W 076°33'1 0.6
2014-Dec-12 00:33N 39°15' W 076°33'0 0.0
2014-Dec-11 23:33N 39°15' W 076°33'0 0.0
2014-Dec-11 22:33N 39°15' W 076°33'0 0.0
2014-Dec-11 21:33N 39°15' W 076°33'0 0.0
2014-Dec-11 20:33N 39°15' W 076°33'0 0.0
2014-Dec-11 19:33N 39°15' W 076°33'0 0.1
2014-Dec-11 18:33N 39°15' W 076°32'0 0.1
2014-Dec-11 17:33N 39°15' W 076°33'0 0.0
2014-Dec-11 16:33N 39°15' W 076°33'1 0.5
2014-Dec-11 15:34N 39°15' W 076°32'8 7.7
2014-Dec-11 14:34N 39°09' W 076°25'1313.2
2014-Dec-11 13:33N 38°56' W 076°23'4318.4
2014-Dec-11 11:12N 38°13' W 076°15'1218.4
2014-Dec-11 10:32N 38°01' W 076°13'33711.1
2014-Dec-10 04:15N 40°04' W 069°28'1114.2
2014-Dec-10 03:28N 40°11' W 069°17'14311.1
2014-Dec-09 14:30N 42°20' W 070°43'5 5.4
2014-Dec-09 13:33N 42°23' W 070°48'8 8.0
2014-Dec-09 12:33N 42°20' W 070°58'2 0.4
2014-Dec-09 06:20N 42°21' W 071°01'0 0.0
2014-Dec-09 00:29N 42°21' W 071°01'0 0.0
2014-Dec-08 22:17N 42°21' W 071°01'0 0.0
2014-Dec-08 21:23N 42°21' W 071°01'0 0.0
2014-Dec-08 19:05N 42°21' W 071°01'0 0.0
2014-Dec-08 18:29N 42°21' W 071°01'4 4.2
2014-Dec-08 17:34N 42°21' W 070°56'10 9.7
2014-Dec-08 16:33N 42°23' W 070°43'6 6.0
2014-Dec-08 15:33N 42°22' W 070°35'1211.9
2014-Dec-08 14:32N 42°21' W 070°19'1413.1
2014-Dec-08 13:29N 42°19' W 070°00'4314.3
2014-Dec-08 10:30N 41°41' W 069°34'7612.2
2014-Dec-08 04:18N 40°26' W 069°28'1215.4
2014-Dec-08 03:31N 40°25' W 069°44'1515.6
2014-Dec-08 02:33N 40°25' W 070°04'1515.4
2014-Dec-08 01:33N 40°25' W 070°24'1515.3
2014-Dec-08 00:33N 40°24' W 070°44'1515.4
2014-Dec-07 23:33N 40°24' W 071°04'1615.8
2014-Dec-07 22:33N 40°24' W 071°25'1615.6
2014-Dec-07 21:33N 40°23' W 071°45'1414.4
2014-Dec-07 20:33N 40°23' W 072°04'1514.7
2014-Dec-07 19:33N 40°23' W 072°23'1515.0
2014-Dec-07 18:33N 40°22' W 072°43'1615.6
2014-Dec-07 17:32N 40°22' W 073°04'1616.2
2014-Dec-07 16:33N 40°24' W 073°25'1110.4
2014-Dec-07 15:33N 40°25' W 073°39'9 9.0
2014-Dec-07 14:33N 40°27' W 073°50'10 9.9
2014-Dec-07 13:33N 40°32' W 074°01'8 8.3
2014-Dec-07 12:34N 40°39' W 074°08'3 2.7
2014-Dec-07 11:33N 40°41' W 074°09'0 0.0
2014-Dec-07 10:30N 40°41' W 074°09'0 0.0
2014-Dec-07 09:27N 40°41' W 074°09'0 0.0
2014-Dec-07 08:33N 40°41' W 074°09'0 0.0
2014-Dec-07 07:27N 40°41' W 074°09'0 0.0
2014-Dec-07 06:33N 40°41' W 074°09'0 0.0
2014-Dec-07 05:30N 40°41' W 074°09'0 0.0
2014-Dec-07 04:27N 40°41' W 074°09'0 0.0
2014-Dec-07 02:33N 40°41' W 074°09'0 0.0
2014-Dec-07 01:30N 40°41' W 074°09'0 0.0
2014-Dec-07 00:33N 40°41' W 074°09'0 0.0
2014-Dec-06 23:33N 40°41' W 074°09'0 0.0
2014-Dec-06 22:33N 40°41' W 074°09'0 0.0
2014-Dec-06 21:33N 40°41' W 074°09'0 0.0
2014-Dec-06 20:33N 40°41' W 074°09'0 0.0
2014-Dec-06 19:33N 40°41' W 074°09'0 0.0
2014-Dec-06 18:33N 40°41' W 074°09'0 0.0
2014-Dec-06 17:33N 40°41' W 074°09'0 0.0
2014-Dec-06 16:27N 40°41' W 074°09'0 0.0
2014-Dec-06 15:06N 40°41' W 074°09'0 0.0
2014-Dec-06 14:33N 40°41' W 074°09'0 0.0
2014-Dec-06 13:33N 40°41' W 074°09'0 0.0
2014-Dec-06 12:27N 40°41' W 074°09'0 0.0
2014-Dec-06 11:33N 40°41' W 074°09'1 1.3
2014-Dec-06 10:34N 40°40' W 074°08'4 4.3
2014-Dec-06 09:33N 40°38' W 074°03'1212.1
2014-Dec-06 08:33N 40°29' W 073°53'7 6.8
2014-Dec-06 07:33N 40°27' W 073°45'5012.0
2014-Dec-06 03:22N 40°30' W 072°39'1315.7
2014-Dec-06 02:34N 40°31' W 072°22'1615.8
2014-Dec-06 01:33N 40°31' W 072°01'1615.9
2014-Dec-06 00:33N 40°32' W 071°40'1716.1
2014-Dec-05 23:29N 40°32' W 071°18'2216.4
2014-Dec-05 22:07N 40°33' W 070°48'916.6
2014-Dec-05 21:33N 40°33' W 070°36'1716.8
2014-Dec-05 20:33N 40°33' W 070°14'1717.0
2014-Dec-05 19:33N 40°34' W 069°51'1717.0
2014-Dec-05 18:33N 40°34' W 069°29'1716.6
2014-Dec-05 17:33N 40°35' W 069°07'1715.9
2014-Dec-05 16:30N 40°35' W 068°45'1515.7
2014-Dec-05 15:33N 40°35' W 068°25'1412.8
2014-Dec-05 14:27N 40°36' W 068°07'  

Dump ship's entire track history